sensor_id;sensor_type;location;lat;lon;timestamp;temperature;humidity
48589;DHT22;34369;51.174;6.738;2023-11-19T00:00:24;10.30;79.40
48589;DHT22;34369;51.174;6.738;2023-11-19T00:02:57;10.40;79.40
48589;DHT22;34369;51.174;6.738;2023-11-19T00:05:31;10.50;79.50
48589;DHT22;34369;51.174;6.738;2023-11-19T00:08:07;10.60;79.60
48589;DHT22;34369;51.174;6.738;2023-11-19T00:10:44;10.60;79.50
48589;DHT22;34369;51.174;6.738;2023-11-19T00:13:23;10.70;79.40
48589;DHT22;34369;51.174;6.738;2023-11-19T00:16:03;10.80;79.40
48589;DHT22;34369;51.174;6.738;2023-11-19T00:18:39;10.90;79.30
48589;DHT22;34369;51.174;6.738;2023-11-19T00:21:21;11.00;79.20
48589;DHT22;34369;51.174;6.738;2023-11-19T00:24:13;11.00;79.30
48589;DHT22;34369;51.174;6.738;2023-11-19T00:26:47;11.10;79.20
48589;DHT22;34369;51.174;6.738;2023-11-19T00:29:37;11.20;79.10
48589;DHT22;34369;51.174;6.738;2023-11-19T00:32:17;11.20;79.30
48589;DHT22;34369;51.174;6.738;2023-11-19T00:34:51;11.40;78.90
48589;DHT22;34369;51.174;6.738;2023-11-19T00:37:24;11.40;78.90
48589;DHT22;34369;51.174;6.738;2023-11-19T00:39:58;11.40;78.90
48589;DHT22;34369;51.174;6.738;2023-11-19T00:42:31;11.50;78.70
48589;DHT22;34369;51.174;6.738;2023-11-19T00:45:14;11.50;78.70
48589;DHT22;34369;51.174;6.738;2023-11-19T00:47:48;11.60;78.80
48589;DHT22;34369;51.174;6.738;2023-11-19T00:50:32;11.60;78.60
48589;DHT22;34369;51.174;6.738;2023-11-19T00:53:21;11.70;78.60
48589;DHT22;34369;51.174;6.738;2023-11-19T00:56:06;11.70;78.60
48589;DHT22;34369;51.174;6.738;2023-11-19T00:59:19;11.80;78.40
48589;DHT22;34369;51.174;6.738;2023-11-19T01:06:13;11.90;78.30
48589;DHT22;34369;51.174;6.738;2023-11-19T01:09:11;11.90;78.10
48589;DHT22;34369;51.174;6.738;2023-11-19T01:11:47;12.00;78.00
48589;DHT22;34369;51.174;6.738;2023-11-19T01:21:50;12.00;77.60
48589;DHT22;34369;51.174;6.738;2023-11-19T01:28:04;12.10;77.50
48589;DHT22;34369;51.174;6.738;2023-11-19T01:30:41;12.10;77.30
48589;DHT22;34369;51.174;6.738;2023-11-19T01:33:54;12.10;77.20
48589;DHT22;34369;51.174;6.738;2023-11-19T01:36:39;12.10;77.20
48589;DHT22;34369;51.174;6.738;2023-11-19T01:39:19;12.20;77.10
48589;DHT22;34369;51.174;6.738;2023-11-19T01:41:51;12.20;77.10
48589;DHT22;34369;51.174;6.738;2023-11-19T01:47:55;12.20;77.00
48589;DHT22;34369;51.174;6.738;2023-11-19T01:50:28;12.20;76.80
48589;DHT22;34369;51.174;6.738;2023-11-19T01:53:34;12.20;76.80
48589;DHT22;34369;51.174;6.738;2023-11-19T01:56:32;12.20;76.70
48589;DHT22;34369;51.174;6.738;2023-11-19T01:59:11;12.20;76.70
48589;DHT22;34369;51.174;6.738;2023-11-19T02:01:46;12.30;76.60
48589;DHT22;34369;51.174;6.738;2023-11-19T02:04:21;12.20;76.50
48589;DHT22;34369;51.174;6.738;2023-11-19T02:06:58;12.20;76.50
48589;DHT22;34369;51.174;6.738;2023-11-19T02:09:42;12.20;76.50
48589;DHT22;34369;51.174;6.738;2023-11-19T02:12:17;12.20;76.60
48589;DHT22;34369;51.174;6.738;2023-11-19T02:14:51;12.30;76.50
48589;DHT22;34369;51.174;6.738;2023-11-19T02:17:27;12.30;76.50
48589;DHT22;34369;51.174;6.738;2023-11-19T02:19:59;12.30;76.50
48589;DHT22;34369;51.174;6.738;2023-11-19T02:22:33;12.30;76.50
48589;DHT22;34369;51.174;6.738;2023-11-19T02:25:09;12.30;76.50
48589;DHT22;34369;51.174;6.738;2023-11-19T02:27:53;12.30;76.50
48589;DHT22;34369;51.174;6.738;2023-11-19T02:30:27;12.30;76.60
48589;DHT22;34369;51.174;6.738;2023-11-19T02:33:00;12.40;76.60
48589;DHT22;34369;51.174;6.738;2023-11-19T02:35:35;12.40;76.50
48589;DHT22;34369;51.174;6.738;2023-11-19T02:38:08;12.40;76.50
48589;DHT22;34369;51.174;6.738;2023-11-19T02:40:41;12.40;76.40
48589;DHT22;34369;51.174;6.738;2023-11-19T02:43:15;12.50;76.30
48589;DHT22;34369;51.174;6.738;2023-11-19T02:45:48;12.40;76.20
48589;DHT22;34369;51.174;6.738;2023-11-19T02:48:21;12.40;76.10
48589;DHT22;34369;51.174;6.738;2023-11-19T02:50:54;12.50;75.90
48589;DHT22;34369;51.174;6.738;2023-11-19T02:53:29;12.50;75.80
48589;DHT22;34369;51.174;6.738;2023-11-19T02:56:01;12.40;75.70
48589;DHT22;34369;51.174;6.738;2023-11-19T02:58:44;12.50;75.70
48589;DHT22;34369;51.174;6.738;2023-11-19T03:01:22;12.40;75.80
48589;DHT22;34369;51.174;6.738;2023-11-19T03:04:00;12.40;75.90
48589;DHT22;34369;51.174;6.738;2023-11-19T03:06:33;12.40;75.80
48589;DHT22;34369;51.174;6.738;2023-11-19T03:09:05;12.40;75.90
48589;DHT22;34369;51.174;6.738;2023-11-19T03:11:41;12.50;75.80
48589;DHT22;34369;51.174;6.738;2023-11-19T03:14:15;12.50;75.80
48589;DHT22;34369;51.174;6.738;2023-11-19T03:16:47;12.50;75.80
48589;DHT22;34369;51.174;6.738;2023-11-19T03:19:19;12.50;75.80
48589;DHT22;34369;51.174;6.738;2023-11-19T03:21:53;12.50;75.70
48589;DHT22;34369;51.174;6.738;2023-11-19T03:24:25;12.50;75.60
48589;DHT22;34369;51.174;6.738;2023-11-19T03:26:58;12.50;75.60
48589;DHT22;34369;51.174;6.738;2023-11-19T03:29:32;12.50;75.50
48589;DHT22;34369;51.174;6.738;2023-11-19T03:32:05;12.50;75.40
48589;DHT22;34369;51.174;6.738;2023-11-19T03:34:38;12.50;75.30
48589;DHT22;34369;51.174;6.738;2023-11-19T03:37:13;12.50;75.20
48589;DHT22;34369;51.174;6.738;2023-11-19T03:39:48;12.50;75.20
48589;DHT22;34369;51.174;6.738;2023-11-19T03:42:20;12.50;75.10
48589;DHT22;34369;51.174;6.738;2023-11-19T03:44:54;12.50;75.00
48589;DHT22;34369;51.174;6.738;2023-11-19T03:47:26;12.50;74.90
48589;DHT22;34369;51.174;6.738;2023-11-19T03:49:58;12.50;74.80
48589;DHT22;34369;51.174;6.738;2023-11-19T03:52:31;12.50;74.60
48589;DHT22;34369;51.174;6.738;2023-11-19T03:55:05;12.50;74.50
48589;DHT22;34369;51.174;6.738;2023-11-19T03:57:39;12.50;74.20
48589;DHT22;34369;51.174;6.738;2023-11-19T04:00:13;12.50;74.20
48589;DHT22;34369;51.174;6.738;2023-11-19T04:02:46;12.50;74.00
48589;DHT22;34369;51.174;6.738;2023-11-19T04:05:19;12.50;73.90
48589;DHT22;34369;51.174;6.738;2023-11-19T04:07:52;12.50;73.60
48589;DHT22;34369;51.174;6.738;2023-11-19T04:10:24;12.50;73.50
48589;DHT22;34369;51.174;6.738;2023-11-19T04:12:58;12.50;73.30
48589;DHT22;34369;51.174;6.738;2023-11-19T04:15:32;12.50;73.00
48589;DHT22;34369;51.174;6.738;2023-11-19T04:18:04;12.50;72.90
48589;DHT22;34369;51.174;6.738;2023-11-19T04:20:36;12.50;72.80
48589;DHT22;34369;51.174;6.738;2023-11-19T04:23:08;12.50;72.70
48589;DHT22;34369;51.174;6.738;2023-11-19T04:25:40;12.50;72.70
48589;DHT22;34369;51.174;6.738;2023-11-19T04:28:13;12.40;72.80
48589;DHT22;34369;51.174;6.738;2023-11-19T04:30:48;12.30;72.80
48589;DHT22;34369;51.174;6.738;2023-11-19T04:33:21;12.30;72.80
48589;DHT22;34369;51.174;6.738;2023-11-19T04:35:53;12.30;72.70
48589;DHT22;34369;51.174;6.738;2023-11-19T04:38:26;12.20;72.80
48589;DHT22;34369;51.174;6.738;2023-11-19T04:40:58;12.20;72.70
48589;DHT22;34369;51.174;6.738;2023-11-19T04:43:31;12.20;72.80
48589;DHT22;34369;51.174;6.738;2023-11-19T04:46:07;12.10;72.80
48589;DHT22;34369;51.174;6.738;2023-11-19T04:48:39;12.10;72.90
48589;DHT22;34369;51.174;6.738;2023-11-19T04:51:11;12.10;72.90
48589;DHT22;34369;51.174;6.738;2023-11-19T04:53:45;12.00;73.00
48589;DHT22;34369;51.174;6.738;2023-11-19T04:56:17;12.00;73.20
48589;DHT22;34369;51.174;6.738;2023-11-19T04:58:50;12.00;73.20
48589;DHT22;34369;51.174;6.738;2023-11-19T05:01:25;11.90;73.10
48589;DHT22;34369;51.174;6.738;2023-11-19T05:03:57;11.90;73.20
48589;DHT22;34369;51.174;6.738;2023-11-19T05:06:31;11.80;73.10
48589;DHT22;34369;51.174;6.738;2023-11-19T05:09:03;11.80;73.10
48589;DHT22;34369;51.174;6.738;2023-11-19T05:11:37;11.80;73.20
48589;DHT22;34369;51.174;6.738;2023-11-19T05:14:10;11.80;73.30
48589;DHT22;34369;51.174;6.738;2023-11-19T05:16:45;11.80;73.40
48589;DHT22;34369;51.174;6.738;2023-11-19T05:19:17;11.80;73.40
48589;DHT22;34369;51.174;6.738;2023-11-19T05:21:50;11.80;73.30
48589;DHT22;34369;51.174;6.738;2023-11-19T05:24:22;11.80;73.20
48589;DHT22;34369;51.174;6.738;2023-11-19T05:26:54;11.80;73.20
48589;DHT22;34369;51.174;6.738;2023-11-19T05:29:28;11.80;73.20
48589;DHT22;34369;51.174;6.738;2023-11-19T05:32:02;11.80;73.10
48589;DHT22;34369;51.174;6.738;2023-11-19T05:34:34;11.80;73.00
48589;DHT22;34369;51.174;6.738;2023-11-19T05:37:07;11.70;73.00
48589;DHT22;34369;51.174;6.738;2023-11-19T05:39:42;11.70;72.90
48589;DHT22;34369;51.174;6.738;2023-11-19T05:42:15;11.70;72.90
48589;DHT22;34369;51.174;6.738;2023-11-19T05:44:48;11.70;72.90
48589;DHT22;34369;51.174;6.738;2023-11-19T05:47:21;11.70;72.90
48589;DHT22;34369;51.174;6.738;2023-11-19T05:49:53;11.70;72.80
48589;DHT22;34369;51.174;6.738;2023-11-19T05:52:26;11.70;72.70
48589;DHT22;34369;51.174;6.738;2023-11-19T05:54:59;11.70;72.60
48589;DHT22;34369;51.174;6.738;2023-11-19T05:57:34;11.70;72.50
48589;DHT22;34369;51.174;6.738;2023-11-19T06:00:07;11.70;72.40
48589;DHT22;34369;51.174;6.738;2023-11-19T06:02:45;11.70;72.40
48589;DHT22;34369;51.174;6.738;2023-11-19T06:05:18;11.70;72.40
48589;DHT22;34369;51.174;6.738;2023-11-19T06:07:50;11.60;72.30
48589;DHT22;34369;51.174;6.738;2023-11-19T06:10:23;11.60;72.20
48589;DHT22;34369;51.174;6.738;2023-11-19T06:13:00;11.60;72.10
48589;DHT22;34369;51.174;6.738;2023-11-19T06:15:35;11.60;71.90
48589;DHT22;34369;51.174;6.738;2023-11-19T06:18:09;11.60;71.80
48589;DHT22;34369;51.174;6.738;2023-11-19T06:20:43;11.60;71.80
48589;DHT22;34369;51.174;6.738;2023-11-19T06:23:17;11.60;71.70
48589;DHT22;34369;51.174;6.738;2023-11-19T06:25:50;11.50;71.50
48589;DHT22;34369;51.174;6.738;2023-11-19T06:28:23;11.50;71.40
48589;DHT22;34369;51.174;6.738;2023-11-19T06:31:10;11.50;71.30
48589;DHT22;34369;51.174;6.738;2023-11-19T06:33:54;11.50;71.10
48589;DHT22;34369;51.174;6.738;2023-11-19T06:36:34;11.50;71.10
48589;DHT22;34369;51.174;6.738;2023-11-19T06:39:11;11.40;71.10
48589;DHT22;34369;51.174;6.738;2023-11-19T06:41:48;11.40;71.00
48589;DHT22;34369;51.174;6.738;2023-11-19T06:44:25;11.40;71.00
48589;DHT22;34369;51.174;6.738;2023-11-19T06:47:01;11.40;70.90
48589;DHT22;34369;51.174;6.738;2023-11-19T06:49:44;11.40;71.00
48589;DHT22;34369;51.174;6.738;2023-11-19T06:52:26;11.30;70.90
48589;DHT22;34369;51.174;6.738;2023-11-19T06:58:31;11.20;70.80
48589;DHT22;34369;51.174;6.738;2023-11-19T07:01:11;11.20;70.80
48589;DHT22;34369;51.174;6.738;2023-11-19T07:03:53;11.20;70.80
48589;DHT22;34369;51.174;6.738;2023-11-19T07:06:36;11.10;70.70
48589;DHT22;34369;51.174;6.738;2023-11-19T07:09:17;11.10;70.60
48589;DHT22;34369;51.174;6.738;2023-11-19T07:12:05;11.10;70.70
48589;DHT22;34369;51.174;6.738;2023-11-19T07:14:37;11.00;70.70
48589;DHT22;34369;51.174;6.738;2023-11-19T07:17:09;11.00;70.70
48589;DHT22;34369;51.174;6.738;2023-11-19T07:19:42;11.00;70.70
48589;DHT22;34369;51.174;6.738;2023-11-19T07:22:15;11.00;70.70
48589;DHT22;34369;51.174;6.738;2023-11-19T07:24:47;11.00;70.80
48589;DHT22;34369;51.174;6.738;2023-11-19T07:27:22;11.00;70.80
48589;DHT22;34369;51.174;6.738;2023-11-19T07:29:54;11.00;70.80
48589;DHT22;34369;51.174;6.738;2023-11-19T07:32:27;11.00;70.80
48589;DHT22;34369;51.174;6.738;2023-11-19T07:34:59;11.00;70.80
48589;DHT22;34369;51.174;6.738;2023-11-19T07:37:32;10.90;70.80
48589;DHT22;34369;51.174;6.738;2023-11-19T07:40:06;11.00;70.80
48589;DHT22;34369;51.174;6.738;2023-11-19T07:42:39;11.00;70.80
48589;DHT22;34369;51.174;6.738;2023-11-19T07:45:11;11.00;70.80
48589;DHT22;34369;51.174;6.738;2023-11-19T07:47:44;11.00;70.70
48589;DHT22;34369;51.174;6.738;2023-11-19T07:50:16;11.00;70.70
48589;DHT22;34369;51.174;6.738;2023-11-19T07:52:52;11.00;70.70
48589;DHT22;34369;51.174;6.738;2023-11-19T07:55:25;11.00;70.80
48589;DHT22;34369;51.174;6.738;2023-11-19T07:57:57;11.00;70.80
48589;DHT22;34369;51.174;6.738;2023-11-19T08:00:29;11.00;70.70
48589;DHT22;34369;51.174;6.738;2023-11-19T08:03:01;11.00;70.70
48589;DHT22;34369;51.174;6.738;2023-11-19T08:05:37;11.10;70.80
48589;DHT22;34369;51.174;6.738;2023-11-19T08:08:11;11.10;70.70
48589;DHT22;34369;51.174;6.738;2023-11-19T08:10:43;11.10;70.70
48589;DHT22;34369;51.174;6.738;2023-11-19T08:13:20;11.20;70.70
48589;DHT22;34369;51.174;6.738;2023-11-19T08:15:53;11.20;70.80
48589;DHT22;34369;51.174;6.738;2023-11-19T08:18:25;11.20;70.80
48589;DHT22;34369;51.174;6.738;2023-11-19T08:20:57;11.20;70.70
48589;DHT22;34369;51.174;6.738;2023-11-19T08:23:32;11.40;70.80
48589;DHT22;34369;51.174;6.738;2023-11-19T08:26:04;11.40;70.60
48589;DHT22;34369;51.174;6.738;2023-11-19T08:28:39;11.40;70.70
48589;DHT22;34369;51.174;6.738;2023-11-19T08:31:12;11.50;70.70
48589;DHT22;34369;51.174;6.738;2023-11-19T08:33:44;11.50;70.70
48589;DHT22;34369;51.174;6.738;2023-11-19T08:36:16;11.60;70.50
48589;DHT22;34369;51.174;6.738;2023-11-19T08:38:50;11.70;70.60
48589;DHT22;34369;51.174;6.738;2023-11-19T08:41:22;11.80;70.40
48589;DHT22;34369;51.174;6.738;2023-11-19T08:43:55;11.80;70.10
48589;DHT22;34369;51.174;6.738;2023-11-19T08:49:05;11.90;70.00
48589;DHT22;34369;51.174;6.738;2023-11-19T08:51:47;12.10;69.10
48589;DHT22;34369;51.174;6.738;2023-11-19T08:54:24;12.10;69.20
48589;DHT22;34369;51.174;6.738;2023-11-19T08:57:17;12.10;69.20
48589;DHT22;34369;51.174;6.738;2023-11-19T09:00:57;12.20;68.50
48589;DHT22;34369;51.174;6.738;2023-11-19T09:03:56;12.20;68.60
48589;DHT22;34369;51.174;6.738;2023-11-19T09:07:23;12.30;68.50
48589;DHT22;34369;51.174;6.738;2023-11-19T09:09:59;12.30;68.20
48589;DHT22;34369;51.174;6.738;2023-11-19T09:13:25;12.30;68.40
48589;DHT22;34369;51.174;6.738;2023-11-19T09:16:33;12.30;67.80
48589;DHT22;34369;51.174;6.738;2023-11-19T09:19:34;12.40;68.00
48589;DHT22;34369;51.174;6.738;2023-11-19T09:22:13;12.40;67.50
48589;DHT22;34369;51.174;6.738;2023-11-19T09:25:19;12.40;68.00
48589;DHT22;34369;51.174;6.738;2023-11-19T09:28:00;12.50;67.50
48589;DHT22;34369;51.174;6.738;2023-11-19T09:31:15;12.50;67.60
48589;DHT22;34369;51.174;6.738;2023-11-19T09:33:53;12.50;66.60
48589;DHT22;34369;51.174;6.738;2023-11-19T09:36:33;12.50;67.20
48589;DHT22;34369;51.174;6.738;2023-11-19T09:39:25;12.50;67.10
48589;DHT22;34369;51.174;6.738;2023-11-19T09:42:18;12.60;66.60
48589;DHT22;34369;51.174;6.738;2023-11-19T09:49:06;12.70;66.80
48589;DHT22;34369;51.174;6.738;2023-11-19T09:52:41;12.70;66.20
48589;DHT22;34369;51.174;6.738;2023-11-19T09:56:03;12.70;66.00
48589;DHT22;34369;51.174;6.738;2023-11-19T09:59:19;12.70;66.10
48589;DHT22;34369;51.174;6.738;2023-11-19T10:02:24;12.70;65.80
48589;DHT22;34369;51.174;6.738;2023-11-19T10:05:55;12.70;66.80
48589;DHT22;34369;51.174;6.738;2023-11-19T10:09:31;12.70;66.20
48589;DHT22;34369;51.174;6.738;2023-11-19T10:13:09;12.80;66.60
48589;DHT22;34369;51.174;6.738;2023-11-19T10:16:11;12.80;66.20
48589;DHT22;34369;51.174;6.738;2023-11-19T10:18:58;12.90;65.60
48589;DHT22;34369;51.174;6.738;2023-11-19T10:21:38;12.90;65.40
48589;DHT22;34369;51.174;6.738;2023-11-19T10:24:14;13.00;66.00
48589;DHT22;34369;51.174;6.738;2023-11-19T10:26:53;13.00;65.90
48589;DHT22;34369;51.174;6.738;2023-11-19T10:29:47;13.00;65.60
48589;DHT22;34369;51.174;6.738;2023-11-19T10:32:24;13.00;64.80
48589;DHT22;34369;51.174;6.738;2023-11-19T10:35:07;13.10;65.40
48589;DHT22;34369;51.174;6.738;2023-11-19T10:37:54;13.10;65.50
48589;DHT22;34369;51.174;6.738;2023-11-19T10:40:54;13.10;64.60
48589;DHT22;34369;51.174;6.738;2023-11-19T10:47:16;13.10;64.00
48589;DHT22;34369;51.174;6.738;2023-11-19T10:50:18;13.10;64.30
48589;DHT22;34369;51.174;6.738;2023-11-19T10:53:02;13.20;64.40
48589;DHT22;34369;51.174;6.738;2023-11-19T10:56:10;13.20;64.20
48589;DHT22;34369;51.174;6.738;2023-11-19T10:59:02;13.30;63.60
48589;DHT22;34369;51.174;6.738;2023-11-19T11:01:46;13.30;63.10
48589;DHT22;34369;51.174;6.738;2023-11-19T11:04:44;13.30;63.20
48589;DHT22;34369;51.174;6.738;2023-11-19T11:08:21;13.30;62.90
48589;DHT22;34369;51.174;6.738;2023-11-19T11:11:00;13.30;62.70
48589;DHT22;34369;51.174;6.738;2023-11-19T11:13:57;13.30;63.50
48589;DHT22;34369;51.174;6.738;2023-11-19T11:17:08;13.30;63.30
48589;DHT22;34369;51.174;6.738;2023-11-19T11:20:09;13.30;63.20
48589;DHT22;34369;51.174;6.738;2023-11-19T11:22:57;13.30;63.30
48589;DHT22;34369;51.174;6.738;2023-11-19T11:26:22;13.30;63.50
48589;DHT22;34369;51.174;6.738;2023-11-19T11:29:32;13.30;62.90
48589;DHT22;34369;51.174;6.738;2023-11-19T11:32:33;13.50;63.50
48589;DHT22;34369;51.174;6.738;2023-11-19T11:35:31;13.50;63.30
48589;DHT22;34369;51.174;6.738;2023-11-19T11:38:15;13.60;63.30
48589;DHT22;34369;51.174;6.738;2023-11-19T11:45:19;13.70;63.50
48589;DHT22;34369;51.174;6.738;2023-11-19T11:48:17;13.80;63.50
48589;DHT22;34369;51.174;6.738;2023-11-19T11:51:11;13.90;63.10
48589;DHT22;34369;51.174;6.738;2023-11-19T11:53:50;13.90;62.80
48589;DHT22;34369;51.174;6.738;2023-11-19T11:56:37;13.90;63.00
48589;DHT22;34369;51.174;6.738;2023-11-19T11:59:27;13.90;62.80
48589;DHT22;34369;51.174;6.738;2023-11-19T12:02:26;13.90;62.00
48589;DHT22;34369;51.174;6.738;2023-11-19T12:05:39;14.00;61.70
48589;DHT22;34369;51.174;6.738;2023-11-19T12:08:27;14.00;60.80
48589;DHT22;34369;51.174;6.738;2023-11-19T12:11:08;14.00;61.60
48589;DHT22;34369;51.174;6.738;2023-11-19T12:14:00;14.00;61.80
48589;DHT22;34369;51.174;6.738;2023-11-19T12:16:53;14.00;61.40
48589;DHT22;34369;51.174;6.738;2023-11-19T12:19:49;14.00;61.50
48589;DHT22;34369;51.174;6.738;2023-11-19T12:22:28;14.00;61.50
48589;DHT22;34369;51.174;6.738;2023-11-19T12:25:30;14.10;61.30
48589;DHT22;34369;51.174;6.738;2023-11-19T12:28:37;14.00;61.60
48589;DHT22;34369;51.174;6.738;2023-11-19T12:31:22;14.10;61.30
48589;DHT22;34369;51.174;6.738;2023-11-19T12:34:05;14.00;61.50
48589;DHT22;34369;51.174;6.738;2023-11-19T12:36:58;14.00;61.00
48589;DHT22;34369;51.174;6.738;2023-11-19T12:39:51;14.00;60.70
48589;DHT22;34369;51.174;6.738;2023-11-19T12:42:52;13.90;60.70
48589;DHT22;34369;51.174;6.738;2023-11-19T12:45:59;13.90;60.80
48589;DHT22;34369;51.174;6.738;2023-11-19T12:48:50;13.80;60.60
48589;DHT22;34369;51.174;6.738;2023-11-19T12:51:42;13.70;60.50
48589;DHT22;34369;51.174;6.738;2023-11-19T12:54:58;13.60;60.90
48589;DHT22;34369;51.174;6.738;2023-11-19T12:57:46;13.60;61.90
48589;DHT22;34369;51.174;6.738;2023-11-19T13:00:29;13.50;62.20
48589;DHT22;34369;51.174;6.738;2023-11-19T13:03:31;13.50;62.10
48589;DHT22;34369;51.174;6.738;2023-11-19T13:06:46;13.50;62.50
48589;DHT22;34369;51.174;6.738;2023-11-19T13:10:10;13.50;62.20
48589;DHT22;34369;51.174;6.738;2023-11-19T13:13:13;13.50;62.30
48589;DHT22;34369;51.174;6.738;2023-11-19T13:16:07;13.50;62.50
48589;DHT22;34369;51.174;6.738;2023-11-19T13:18:46;13.50;62.40
48589;DHT22;34369;51.174;6.738;2023-11-19T13:21:35;13.50;62.70
48589;DHT22;34369;51.174;6.738;2023-11-19T13:28:50;13.50;63.00
48589;DHT22;34369;51.174;6.738;2023-11-19T13:32:14;13.50;62.70
48589;DHT22;34369;51.174;6.738;2023-11-19T13:34:54;13.50;62.80
48589;DHT22;34369;51.174;6.738;2023-11-19T13:37:33;13.50;62.80
48589;DHT22;34369;51.174;6.738;2023-11-19T13:40:14;13.50;62.60
48589;DHT22;34369;51.174;6.738;2023-11-19T13:43:16;13.50;62.60
48589;DHT22;34369;51.174;6.738;2023-11-19T13:45:56;13.50;62.00
48589;DHT22;34369;51.174;6.738;2023-11-19T13:48:34;13.50;62.20
48589;DHT22;34369;51.174;6.738;2023-11-19T13:51:22;13.50;62.30
48589;DHT22;34369;51.174;6.738;2023-11-19T13:53:58;13.40;62.20
48589;DHT22;34369;51.174;6.738;2023-11-19T13:56:36;13.30;62.20
48589;DHT22;34369;51.174;6.738;2023-11-19T13:59:15;13.30;62.60
48589;DHT22;34369;51.174;6.738;2023-11-19T14:01:52;13.30;62.40
48589;DHT22;34369;51.174;6.738;2023-11-19T14:04:35;13.30;62.50
48589;DHT22;34369;51.174;6.738;2023-11-19T14:07:37;13.30;62.30
48589;DHT22;34369;51.174;6.738;2023-11-19T14:10:26;13.20;62.50
48589;DHT22;34369;51.174;6.738;2023-11-19T14:13:17;13.10;62.50
48589;DHT22;34369;51.174;6.738;2023-11-19T14:15:55;13.10;62.90
48589;DHT22;34369;51.174;6.738;2023-11-19T14:18:46;13.10;63.20
48589;DHT22;34369;51.174;6.738;2023-11-19T14:21:26;13.10;63.20
48589;DHT22;34369;51.174;6.738;2023-11-19T14:24:04;13.10;63.20
48589;DHT22;34369;51.174;6.738;2023-11-19T14:26:45;13.00;63.30
48589;DHT22;34369;51.174;6.738;2023-11-19T14:29:23;13.00;63.40
48589;DHT22;34369;51.174;6.738;2023-11-19T14:32:22;12.90;63.70
48589;DHT22;34369;51.174;6.738;2023-11-19T14:35:03;12.80;64.00
48589;DHT22;34369;51.174;6.738;2023-11-19T14:37:44;12.80;64.30
48589;DHT22;34369;51.174;6.738;2023-11-19T14:40:21;12.70;64.70
48589;DHT22;34369;51.174;6.738;2023-11-19T14:42:59;12.70;64.90
48589;DHT22;34369;51.174;6.738;2023-11-19T14:45:38;12.60;65.00
48589;DHT22;34369;51.174;6.738;2023-11-19T14:48:14;12.50;65.10
48589;DHT22;34369;51.174;6.738;2023-11-19T14:51:54;12.50;65.40
48589;DHT22;34369;51.174;6.738;2023-11-19T14:54:33;12.50;65.50
48589;DHT22;34369;51.174;6.738;2023-11-19T14:57:13;12.40;65.20
48589;DHT22;34369;51.174;6.738;2023-11-19T14:59:59;12.40;65.30
48589;DHT22;34369;51.174;6.738;2023-11-19T15:02:45;12.30;65.50
48589;DHT22;34369;51.174;6.738;2023-11-19T15:05:22;12.30;65.00
48589;DHT22;34369;51.174;6.738;2023-11-19T15:07:57;12.30;65.10
48589;DHT22;34369;51.174;6.738;2023-11-19T15:10:41;12.20;65.50
48589;DHT22;34369;51.174;6.738;2023-11-19T15:13:23;12.20;65.80
48589;DHT22;34369;51.174;6.738;2023-11-19T15:15:55;12.20;65.80
48589;DHT22;34369;51.174;6.738;2023-11-19T15:21:00;12.10;66.10
48589;DHT22;34369;51.174;6.738;2023-11-19T15:23:37;12.10;66.60
48589;DHT22;34369;51.174;6.738;2023-11-19T15:26:13;12.00;66.50
48589;DHT22;34369;51.174;6.738;2023-11-19T15:28:51;12.00;66.60
48589;DHT22;34369;51.174;6.738;2023-11-19T15:31:30;12.00;66.70
48589;DHT22;34369;51.174;6.738;2023-11-19T15:34:09;11.90;66.90
48589;DHT22;34369;51.174;6.738;2023-11-19T15:36:48;11.90;67.00
48589;DHT22;34369;51.174;6.738;2023-11-19T15:39:23;11.80;67.10
48589;DHT22;34369;51.174;6.738;2023-11-19T15:42:02;11.80;67.00
48589;DHT22;34369;51.174;6.738;2023-11-19T15:44:43;11.80;66.90
48589;DHT22;34369;51.174;6.738;2023-11-19T15:47:20;11.70;66.90
48589;DHT22;34369;51.174;6.738;2023-11-19T15:49:56;11.70;66.90
48589;DHT22;34369;51.174;6.738;2023-11-19T15:52:37;11.70;66.90
48589;DHT22;34369;51.174;6.738;2023-11-19T15:55:18;11.70;67.10
48589;DHT22;34369;51.174;6.738;2023-11-19T15:57:56;11.70;67.10
48589;DHT22;34369;51.174;6.738;2023-11-19T16:00:34;11.60;67.20
48589;DHT22;34369;51.174;6.738;2023-11-19T16:03:13;11.60;67.20
48589;DHT22;34369;51.174;6.738;2023-11-19T16:05:50;11.60;67.20
48589;DHT22;34369;51.174;6.738;2023-11-19T16:08:25;11.60;67.20
48589;DHT22;34369;51.174;6.738;2023-11-19T16:10:59;11.60;67.20
48589;DHT22;34369;51.174;6.738;2023-11-19T16:13:31;11.60;67.30
48589;DHT22;34369;51.174;6.738;2023-11-19T16:16:05;11.60;67.40
48589;DHT22;34369;51.174;6.738;2023-11-19T16:18:38;11.50;67.50
48589;DHT22;34369;51.174;6.738;2023-11-19T16:21:12;11.60;67.60
48589;DHT22;34369;51.174;6.738;2023-11-19T16:23:46;11.50;67.60
48589;DHT22;34369;51.174;6.738;2023-11-19T16:26:19;11.50;67.80
48589;DHT22;34369;51.174;6.738;2023-11-19T16:28:51;11.50;67.80
48589;DHT22;34369;51.174;6.738;2023-11-19T16:31:24;11.50;67.80
48589;DHT22;34369;51.174;6.738;2023-11-19T16:33:56;11.50;67.80
48589;DHT22;34369;51.174;6.738;2023-11-19T16:36:30;11.50;67.70
48589;DHT22;34369;51.174;6.738;2023-11-19T16:39:04;11.50;67.70
48589;DHT22;34369;51.174;6.738;2023-11-19T16:41:39;11.50;67.70
48589;DHT22;34369;51.174;6.738;2023-11-19T16:44:13;11.50;67.60
48589;DHT22;34369;51.174;6.738;2023-11-19T16:46:46;11.50;67.50
48589;DHT22;34369;51.174;6.738;2023-11-19T16:49:18;11.50;67.50
48589;DHT22;34369;51.174;6.738;2023-11-19T16:51:50;11.50;67.50
48589;DHT22;34369;51.174;6.738;2023-11-19T16:54:25;11.50;67.50
48589;DHT22;34369;51.174;6.738;2023-11-19T16:56:58;11.50;67.40
48589;DHT22;34369;51.174;6.738;2023-11-19T16:59:31;11.50;67.30
48589;DHT22;34369;51.174;6.738;2023-11-19T17:02:04;11.50;67.20
48589;DHT22;34369;51.174;6.738;2023-11-19T17:04:37;11.50;67.20
48589;DHT22;34369;51.174;6.738;2023-11-19T17:07:09;11.50;67.20
48589;DHT22;34369;51.174;6.738;2023-11-19T17:09:43;11.50;67.10
48589;DHT22;34369;51.174;6.738;2023-11-19T17:12:15;11.50;67.20
48589;DHT22;34369;51.174;6.738;2023-11-19T17:14:48;11.50;67.20
48589;DHT22;34369;51.174;6.738;2023-11-19T17:17:20;11.50;67.10
48589;DHT22;34369;51.174;6.738;2023-11-19T17:19:53;11.50;67.00
48589;DHT22;34369;51.174;6.738;2023-11-19T17:22:25;11.50;66.90
48589;DHT22;34369;51.174;6.738;2023-11-19T17:24:59;11.50;66.80
48589;DHT22;34369;51.174;6.738;2023-11-19T17:27:33;11.50;66.90
48589;DHT22;34369;51.174;6.738;2023-11-19T17:30:09;11.50;67.00
48589;DHT22;34369;51.174;6.738;2023-11-19T17:32:43;11.50;67.00
48589;DHT22;34369;51.174;6.738;2023-11-19T17:35:16;11.50;66.70
48589;DHT22;34369;51.174;6.738;2023-11-19T17:37:49;11.50;66.60
48589;DHT22;34369;51.174;6.738;2023-11-19T17:40:23;11.50;66.50
48589;DHT22;34369;51.174;6.738;2023-11-19T17:42:56;11.50;66.40